Time;durP1;ratioP1;P1;durP2;ratioP2;P2;SDS_P1;SDS_P2;PMS_P1;PMS_P2;Temp;Humidity;BMP_temperature;BMP_pressure;BME280_temperature;BME280_humidity;BME280_pressure;Samples;Min_cycle;Max_cycle;Signal;HPM_P1;HPM_P2
2022/07/06 00:01:46;;;;;;;7.68;6.93;;;;;;;;;;5091317;28;20086;-85
2022/07/06 00:04:12;;;;;;;7.93;6.35;;;;;;;;;;5091459;28;20053;-86
2022/07/06 00:06:37;;;;;;;9.90;7.90;;;;;;;;;;5091318;28;20030;-84
2022/07/06 00:09:04;;;;;;;9.00;7.78;;;;;;;;;;5089930;28;20028;-84
2022/07/06 00:11:29;;;;;;;7.50;6.80;;;;;;;;;;5090997;28;20042;-82
2022/07/06 00:13:56;;;;;;;8.05;7.13;;;;;;;;;;5091294;28;20122;-82
2022/07/06 00:16:22;;;;;;;8.63;7.72;;;;;;;;;;5091014;28;20020;-84
2022/07/06 00:18:47;;;;;;;10.25;8.50;;;;;;;;;;5089940;28;20073;-86
2022/07/06 00:21:13;;;;;;;10.07;9.07;;;;;;;;;;5091119;28;20415;-85
2022/07/06 00:23:38;;;;;;;10.43;9.40;;;;;;;;;;5090850;28;20486;-84
2022/07/06 00:26:04;;;;;;;11.80;10.60;;;;;;;;;;5091058;28;20126;-81
2022/07/06 00:28:29;;;;;;;11.88;10.68;;;;;;;;;;5089475;28;20062;-83
2022/07/06 00:30:55;;;;;;;13.35;11.48;;;;;;;;;;5090951;28;20024;-82
2022/07/06 00:33:21;;;;;;;12.38;11.00;;;;;;;;;;5089753;28;20087;-85
2022/07/06 00:35:46;;;;;;;14.75;11.95;;;;;;;;;;5089439;28;20056;-84
2022/07/06 00:38:12;;;;;;;13.70;12.32;;;;;;;;;;5091193;28;20521;-84
2022/07/06 00:40:37;;;;;;;13.50;11.98;;;;;;;;;;5090611;28;20032;-83
2022/07/06 00:43:03;;;;;;;12.95;11.65;;;;;;;;;;5090583;28;20039;-83
2022/07/06 00:45:28;;;;;;;13.27;11.95;;;;;;;;;;5090614;28;20024;-83
2022/07/06 00:47:54;;;;;;;13.02;11.75;;;;;;;;;;5091059;28;20031;-83
2022/07/06 00:50:21;;;;;;;12.77;11.48;;;;;;;;;;5090944;28;20414;-83
2022/07/06 00:52:52;;;;;;;13.05;11.23;;;;;;;;;;5086681;28;20038;-84
2022/07/06 00:55:22;;;;;;;10.23;9.07;;;;;;;;;;5091117;28;20078;-85
2022/07/06 00:57:49;;;;;;;9.60;8.70;;;;;;;;;;5090840;28;20387;-84
2022/07/06 01:00:17;;;;;;;9.63;8.73;;;;;;;;;;5090825;28;20024;-83
2022/07/06 01:02:43;;;;;;;10.65;9.55;;;;;;;;;;5089087;28;20031;-86
2022/07/06 01:05:11;;;;;;;9.10;8.20;;;;;;;;;;5089631;28;20399;-84
2022/07/06 01:07:38;;;;;;;8.98;8.07;;;;;;;;;;5088282;28;20491;-83
2022/07/06 01:10:05;;;;;;;8.43;7.60;;;;;;;;;;5087316;28;20043;-83
2022/07/06 01:12:31;;;;;;;9.75;8.35;;;;;;;;;;5094175;28;20027;-83
2022/07/06 01:14:57;;;;;;;10.65;8.48;;;;;;;;;;5094121;28;20063;-83
2022/07/06 01:17:23;;;;;;;8.98;7.88;;;;;;;;;;5094157;28;20105;-84
2022/07/06 01:19:49;;;;;;;9.45;8.35;;;;;;;;;;5094499;28;20016;-86
2022/07/06 01:22:15;;;;;;;8.32;6.93;;;;;;;;;;5094252;28;20103;-83
2022/07/06 01:24:40;;;;;;;8.00;7.30;;;;;;;;;;5093997;28;20032;-83
2022/07/06 01:27:07;;;;;;;8.02;6.97;;;;;;;;;;5094030;28;20030;-83
2022/07/06 01:29:33;;;;;;;7.88;6.38;;;;;;;;;;5093888;28;20016;-83
2022/07/06 01:32:00;;;;;;;7.07;6.32;;;;;;;;;;5092897;28;20429;-85
2022/07/06 01:34:26;;;;;;;7.07;6.45;;;;;;;;;;5094320;28;20027;-83
2022/07/06 01:36:52;;;;;;;6.80;6.18;;;;;;;;;;5092313;28;20032;-84
2022/07/06 01:39:17;;;;;;;7.05;6.38;;;;;;;;;;5093733;28;20098;-85
2022/07/06 01:41:42;;;;;;;7.50;6.80;;;;;;;;;;5094388;28;20111;-83
2022/07/06 01:44:08;;;;;;;8.05;7.25;;;;;;;;;;5092743;28;20472;-84
2022/07/06 01:46:34;;;;;;;9.25;8.30;;;;;;;;;;5091989;28;20028;-84
2022/07/06 01:49:00;;;;;;;7.78;6.93;;;;;;;;;;5094063;28;20024;-84
2022/07/06 01:51:25;;;;;;;7.03;6.32;;;;;;;;;;5093072;28;20024;-85
2022/07/06 01:53:52;;;;;;;8.65;6.97;;;;;;;;;;5093600;28;20533;-85
2022/07/06 01:56:19;;;;;;;9.60;7.45;;;;;;;;;;5090797;28;20039;-84
2022/07/06 01:58:45;;;;;;;9.07;7.75;;;;;;;;;;5091959;28;20070;-85
2022/07/06 02:01:13;;;;;;;8.45;6.53;;;;;;;;;;5092292;28;20894;-85
2022/07/06 02:03:38;;;;;;;9.50;7.47;;;;;;;;;;5093254;28;20016;-85
2022/07/06 02:06:05;;;;;;;7.88;7.18;;;;;;;;;;5093383;28;20032;-84
2022/07/06 02:08:31;;;;;;;9.40;8.50;;;;;;;;;;5093089;28;20131;-84
2022/07/06 02:10:57;;;;;;;9.98;8.60;;;;;;;;;;5093262;28;20028;-86
2022/07/06 02:13:23;;;;;;;8.77;7.97;;;;;;;;;;5092028;28;20020;-86
2022/07/06 02:15:49;;;;;;;11.23;9.00;;;;;;;;;;5093403;28;20472;-85
2022/07/06 02:18:15;;;;;;;9.73;8.15;;;;;;;;;;5093022;28;20396;-83
2022/07/06 02:20:40;;;;;;;7.68;6.97;;;;;;;;;;5093183;28;20026;-85
2022/07/06 02:23:06;;;;;;;10.15;7.95;;;;;;;;;;5092541;28;20070;-86
2022/07/06 02:25:31;;;;;;;9.80;7.43;;;;;;;;;;5092742;28;20459;-85
2022/07/06 02:27:57;;;;;;;27.65;21.65;;;;;;;;;;5092777;28;20437;-83
2022/07/06 02:30:22;;;;;;;8.55;7.65;;;;;;;;;;5092468;28;20650;-83
2022/07/06 02:32:48;;;;;;;10.43;8.18;;;;;;;;;;5092787;28;20055;-85
2022/07/06 02:35:13;;;;;;;13.00;9.02;;;;;;;;;;5092565;28;20023;-85
2022/07/06 02:37:39;;;;;;;11.68;7.97;;;;;;;;;;5092570;28;20028;-85
2022/07/06 02:40:05;;;;;;;9.32;7.68;;;;;;;;;;5092832;28;20052;-84
2022/07/06 02:42:30;;;;;;;9.32;7.63;;;;;;;;;;5092535;28;20067;-85
2022/07/06 02:44:56;;;;;;;8.88;7.97;;;;;;;;;;5092838;28;20048;-84
2022/07/06 02:47:21;;;;;;;10.48;9.45;;;;;;;;;;5091152;28;20086;-85
2022/07/06 02:49:47;;;;;;;8.93;8.10;;;;;;;;;;5091089;28;20106;-84
2022/07/06 02:52:13;;;;;;;8.52;7.63;;;;;;;;;;5090650;28;20058;-84
2022/07/06 02:54:38;;;;;;;8.57;7.65;;;;;;;;;;5090682;28;20063;-85
2022/07/06 02:57:04;;;;;;;8.50;7.55;;;;;;;;;;5090455;28;20480;-84
2022/07/06 02:59:30;;;;;;;20.52;18.40;;;;;;;;;;5088656;28;20035;-85
2022/07/06 03:01:55;;;;;;;52.30;46.63;;;;;;;;;;5089662;28;20107;-85
2022/07/06 03:04:20;;;;;;;20.15;17.80;;;;;;;;;;5090946;28;20461;-85
2022/07/06 03:06:46;;;;;;;9.40;7.63;;;;;;;;;;5087419;28;20084;-84
2022/07/06 03:09:12;;;;;;;8.93;8.02;;;;;;;;;;5088843;28;20157;-85
2022/07/06 03:11:37;;;;;;;11.88;8.07;;;;;;;;;;5091846;28;20031;-82
2022/07/06 03:14:03;;;;;;;10.02;9.00;;;;;;;;;;5090765;28;20028;-85
2022/07/06 03:16:29;;;;;;;10.27;7.70;;;;;;;;;;5085852;28;21395;-83
2022/07/06 03:18:55;;;;;;;8.85;7.50;;;;;;;;;;5089294;28;20027;-82
2022/07/06 03:21:20;;;;;;;7.57;6.88;;;;;;;;;;5089181;28;20016;-83
2022/07/06 03:23:46;;;;;;;7.90;7.20;;;;;;;;;;5091165;28;20035;-83
2022/07/06 03:26:11;;;;;;;8.32;7.07;;;;;;;;;;5089026;28;20108;-82
2022/07/06 03:28:37;;;;;;;8.52;6.88;;;;;;;;;;5090661;28;20031;-83
2022/07/06 03:31:02;;;;;;;7.78;6.97;;;;;;;;;;5089564;28;20036;-84
2022/07/06 03:33:28;;;;;;;7.32;6.63;;;;;;;;;;5087589;28;20028;-83
2022/07/06 03:35:53;;;;;;;6.07;5.47;;;;;;;;;;5088755;28;20035;-85
2022/07/06 03:38:18;;;;;;;6.57;5.85;;;;;;;;;;5084369;28;20077;-82
2022/07/06 03:40:44;;;;;;;7.22;6.13;;;;;;;;;;5087601;28;20073;-84
2022/07/06 03:43:10;;;;;;;10.80;9.70;;;;;;;;;;5087549;28;20078;-82
2022/07/06 03:45:35;;;;;;;6.15;4.30;;;;;;;;;;5087439;28;20024;-83
2022/07/06 03:48:00;;;;;;;5.60;4.07;;;;;;;;;;5087228;28;20549;-84
2022/07/06 03:50:26;;;;;;;5.40;3.85;;;;;;;;;;5088804;28;20031;-82
2022/07/06 03:52:51;;;;;;;5.43;4.00;;;;;;;;;;5085592;28;20065;-82
2022/07/06 03:55:17;;;;;;;5.35;3.80;;;;;;;;;;5090911;28;20043;-81
2022/07/06 03:57:42;;;;;;;4.22;3.67;;;;;;;;;;5091005;28;20073;-82
2022/07/06 04:00:09;;;;;;;4.93;4.13;;;;;;;;;;5091573;28;20146;-84
2022/07/06 04:02:35;;;;;;;5.55;3.88;;;;;;;;;;5091686;28;20463;-84
2022/07/06 04:05:00;;;;;;;4.68;3.90;;;;;;;;;;5090136;28;20157;-83
2022/07/06 04:07:26;;;;;;;5.38;3.78;;;;;;;;;;5089898;28;20353;-84
2022/07/06 04:09:52;;;;;;;4.93;3.92;;;;;;;;;;5088412;28;20032;-81
2022/07/06 04:12:17;;;;;;;7.03;3.88;;;;;;;;;;5089161;28;20020;-82
2022/07/06 04:14:43;;;;;;;5.07;3.75;;;;;;;;;;5090984;28;20024;-85
2022/07/06 04:19:52;;;;;;;4.43;3.83;;;;;;;;;;5089618;28;20105;-80
2022/07/06 04:22:18;;;;;;;5.47;4.32;;;;;;;;;;5089162;28;20063;-83
2022/07/06 04:24:43;;;;;;;5.22;3.78;;;;;;;;;;5086832;28;20109;-82
2022/07/06 04:27:09;;;;;;;6.00;4.25;;;;;;;;;;5085548;28;20028;-80
2022/07/06 04:29:34;;;;;;;5.00;3.75;;;;;;;;;;5088871;28;20032;-81
2022/07/06 04:32:00;;;;;;;4.15;3.42;;;;;;;;;;5090133;28;20023;-82
2022/07/06 04:34:25;;;;;;;4.53;3.85;;;;;;;;;;5089452;28;20032;-82
2022/07/06 04:36:50;;;;;;;4.05;3.65;;;;;;;;;;5087568;28;20035;-81
2022/07/06 04:39:16;;;;;;;4.43;4.03;;;;;;;;;;5086869;28;20039;-83
2022/07/06 04:41:41;;;;;;;5.72;4.50;;;;;;;;;;5090681;28;20098;-83
2022/07/06 04:44:07;;;;;;;4.35;3.90;;;;;;;;;;5088952;28;20111;-83
2022/07/06 04:46:32;;;;;;;8.65;4.00;;;;;;;;;;5092838;28;20414;-82
2022/07/06 04:48:58;;;;;;;4.88;4.10;;;;;;;;;;5092882;28;20039;-84
2022/07/06 04:51:23;;;;;;;5.38;4.20;;;;;;;;;;5094699;28;20028;-83
2022/07/06 04:53:48;;;;;;;6.07;4.45;;;;;;;;;;5094280;28;20127;-82
2022/07/06 04:56:14;;;;;;;7.55;4.85;;;;;;;;;;5094158;28;20043;-82
2022/07/06 04:58:39;;;;;;;6.43;4.45;;;;;;;;;;5094380;28;20028;-82
2022/07/06 05:01:05;;;;;;;6.07;4.90;;;;;;;;;;5094137;28;20475;-82
2022/07/06 05:03:30;;;;;;;6.05;4.55;;;;;;;;;;5094449;28;20035;-83
2022/07/06 05:05:55;;;;;;;5.50;4.70;;;;;;;;;;5093434;28;20028;-82
2022/07/06 05:08:21;;;;;;;7.25;4.63;;;;;;;;;;5094058;28;21462;-83
2022/07/06 05:10:48;;;;;;;6.55;5.40;;;;;;;;;;5090006;28;20031;-81
2022/07/06 05:13:14;;;;;;;5.35;4.70;;;;;;;;;;5091693;28;20056;-81
2022/07/06 05:15:39;;;;;;;8.02;5.28;;;;;;;;;;5093802;28;20160;-81
2022/07/06 05:18:05;;;;;;;5.18;4.57;;;;;;;;;;5092673;28;20104;-83
2022/07/06 05:20:30;;;;;;;7.45;5.78;;;;;;;;;;5091924;28;20020;-83
2022/07/06 05:22:55;;;;;;;6.43;5.05;;;;;;;;;;5091150;28;20066;-83
2022/07/06 05:25:21;;;;;;;7.15;5.28;;;;;;;;;;5088042;28;20076;-82
2022/07/06 05:27:46;;;;;;;5.88;5.18;;;;;;;;;;5093657;28;20027;-84
2022/07/06 05:30:12;;;;;;;6.10;5.20;;;;;;;;;;5092817;28;20028;-83
2022/07/06 05:32:38;;;;;;;6.65;5.38;;;;;;;;;;5091835;28;20039;-85
2022/07/06 05:35:04;;;;;;;5.55;5.05;;;;;;;;;;5091540;28;20430;-88
2022/07/06 05:37:29;;;;;;;6.25;5.25;;;;;;;;;;5088730;28;20038;-86
2022/07/06 05:39:54;;;;;;;5.28;4.55;;;;;;;;;;5087146;28;20728;-82
2022/07/06 05:42:20;;;;;;;6.30;4.65;;;;;;;;;;5089915;28;20468;-83
2022/07/06 05:44:45;;;;;;;6.45;4.25;;;;;;;;;;5088012;28;20024;-81
2022/07/06 05:50:13;;;;;;;5.72;4.47;;;;;;;;;;5089689;28;20031;-81
2022/07/06 05:52:39;;;;;;;6.43;4.63;;;;;;;;;;5089665;28;20525;-82
2022/07/06 05:55:06;;;;;;;6.30;5.70;;;;;;;;;;5091069;28;20495;-85
2022/07/06 05:57:31;;;;;;;5.80;5.20;;;;;;;;;;5087903;28;20110;-84
2022/07/06 05:59:56;;;;;;;5.50;5.00;;;;;;;;;;5089380;28;20610;-85
2022/07/06 06:02:22;;;;;;;7.70;5.55;;;;;;;;;;5089956;28;20103;-83
2022/07/06 06:04:47;;;;;;;7.00;5.40;;;;;;;;;;5092136;28;20031;-82
2022/07/06 06:07:13;;;;;;;6.53;5.45;;;;;;;;;;5093085;28;20027;-82
2022/07/06 06:09:38;;;;;;;5.95;4.95;;;;;;;;;;5089196;28;20020;-85
2022/07/06 06:12:04;;;;;;;5.57;4.63;;;;;;;;;;5092485;28;20471;-86
2022/07/06 06:14:29;;;;;;;4.60;4.20;;;;;;;;;;5093392;28;20031;-83
2022/07/06 06:16:55;;;;;;;7.10;4.45;;;;;;;;;;5091208;28;20464;-82
2022/07/06 06:19:20;;;;;;;5.20;4.70;;;;;;;;;;5091223;28;20425;-85
2022/07/06 06:21:45;;;;;;;5.55;5.00;;;;;;;;;;5089952;28;20054;-83
2022/07/06 06:24:11;;;;;;;8.73;5.18;;;;;;;;;;5089749;28;20042;-84
2022/07/06 06:26:37;;;;;;;4.80;4.28;;;;;;;;;;5087684;28;20028;-84
2022/07/06 06:29:02;;;;;;;5.93;5.32;;;;;;;;;;5088220;28;20078;-82
2022/07/06 06:31:27;;;;;;;6.57;4.43;;;;;;;;;;5093394;28;20031;-84
2022/07/06 06:33:55;;;;;;;6.00;4.90;;;;;;;;;;5093150;28;20035;-82
2022/07/06 06:36:21;;;;;;;9.35;5.32;;;;;;;;;;5093268;28;20024;-84
2022/07/06 06:38:47;;;;;;;6.43;5.30;;;;;;;;;;5091912;28;20120;-85
2022/07/06 06:41:13;;;;;;;6.75;5.35;;;;;;;;;;5092729;28;20024;-82
2022/07/06 06:43:38;;;;;;;7.45;5.47;;;;;;;;;;5093223;28;20539;-85
2022/07/06 06:46:04;;;;;;;6.40;5.22;;;;;;;;;;5092644;28;20046;-85
2022/07/06 06:48:31;;;;;;;5.88;5.18;;;;;;;;;;5092922;28;20020;-85
2022/07/06 06:50:56;;;;;;;8.75;6.20;;;;;;;;;;5092645;28;20146;-82
2022/07/06 06:53:22;;;;;;;6.55;5.13;;;;;;;;;;5091400;28;20539;-84
2022/07/06 06:55:47;;;;;;;9.88;6.68;;;;;;;;;;5091558;28;20035;-83
2022/07/06 06:58:13;;;;;;;7.07;6.25;;;;;;;;;;5089691;28;20026;-85
2022/07/06 07:00:43;;;;;;;6.88;5.55;;;;;;;;;;5092290;28;20401;-85
2022/07/06 07:03:10;;;;;;;7.75;5.97;;;;;;;;;;5091098;28;20060;-83
2022/07/06 07:05:35;;;;;;;7.10;5.82;;;;;;;;;;5089908;28;20035;-85
2022/07/06 07:08:00;;;;;;;5.90;5.30;;;;;;;;;;5091180;28;20032;-87
2022/07/06 07:10:26;;;;;;;6.90;6.03;;;;;;;;;;5092550;28;20103;-85
2022/07/06 07:12:53;;;;;;;7.43;6.30;;;;;;;;;;5092449;28;20034;-84
2022/07/06 07:15:18;;;;;;;6.93;5.90;;;;;;;;;;5092287;28;20028;-86
2022/07/06 07:17:44;;;;;;;6.35;5.63;;;;;;;;;;5091025;28;20545;-84
2022/07/06 07:20:10;;;;;;;6.85;6.15;;;;;;;;;;5091975;28;20035;-84
2022/07/06 07:22:36;;;;;;;7.95;7.15;;;;;;;;;;5090588;28;20393;-83
2022/07/06 07:25:01;;;;;;;7.43;6.65;;;;;;;;;;5092279;28;20028;-84
2022/07/06 07:27:27;;;;;;;8.63;6.97;;;;;;;;;;5091966;28;20468;-84
2022/07/06 07:29:53;;;;;;;8.45;6.10;;;;;;;;;;5090716;28;20024;-84
2022/07/06 07:32:19;;;;;;;8.00;6.85;;;;;;;;;;5091990;28;20023;-85
2022/07/06 07:34:45;;;;;;;8.00;6.82;;;;;;;;;;5092361;28;20020;-86
2022/07/06 07:37:10;;;;;;;7.57;6.80;;;;;;;;;;5092587;28;20387;-89
2022/07/06 07:39:36;;;;;;;8.65;7.72;;;;;;;;;;5090285;28;20020;-85
2022/07/06 07:42:02;;;;;;;8.43;7.28;;;;;;;;;;5090410;28;20115;-85
2022/07/06 07:44:27;;;;;;;8.18;7.38;;;;;;;;;;5089134;28;20052;-87
2022/07/06 07:46:53;;;;;;;10.25;7.85;;;;;;;;;;5089277;28;20124;-84
2022/07/06 07:49:21;;;;;;;8.70;7.90;;;;;;;;;;5086269;28;20024;-86
2022/07/06 07:51:50;;;;;;;8.75;7.90;;;;;;;;;;5088504;28;20012;-87
2022/07/06 07:54:16;;;;;;;7.70;6.90;;;;;;;;;;5090295;28;20052;-86
2022/07/06 07:56:42;;;;;;;8.23;6.72;;;;;;;;;;5089210;28;20024;-85
2022/07/06 07:59:08;;;;;;;9.02;7.65;;;;;;;;;;5085555;28;20054;-87
2022/07/06 08:01:34;;;;;;;8.95;7.60;;;;;;;;;;5090294;28;20028;-87
2022/07/06 08:03:59;;;;;;;8.63;7.82;;;;;;;;;;5088057;28;20035;-83
2022/07/06 08:06:25;;;;;;;9.65;8.15;;;;;;;;;;5090075;28;20031;-84
2022/07/06 08:08:51;;;;;;;8.95;8.02;;;;;;;;;;5090963;28;20020;-85
2022/07/06 08:11:17;;;;;;;9.05;8.15;;;;;;;;;;5090033;28;20052;-84
2022/07/06 08:13:42;;;;;;;8.43;7.53;;;;;;;;;;5085216;28;20027;-86
2022/07/06 08:16:09;;;;;;;7.07;6.38;;;;;;;;;;5092562;28;20061;-84
2022/07/06 08:18:35;;;;;;;7.30;6.47;;;;;;;;;;5085725;28;20024;-86
2022/07/06 08:21:00;;;;;;;8.00;7.28;;;;;;;;;;5091971;28;20077;-84
2022/07/06 08:23:26;;;;;;;6.90;6.18;;;;;;;;;;5097386;28;20039;-84
2022/07/06 08:25:54;;;;;;;7.13;6.32;;;;;;;;;;5094873;28;20024;-85
2022/07/06 08:28:20;;;;;;;6.93;6.03;;;;;;;;;;5094670;28;20046;-85
2022/07/06 08:30:45;;;;;;;7.78;7.03;;;;;;;;;;5095401;28;20039;-83
2022/07/06 08:33:11;;;;;;;7.93;6.88;;;;;;;;;;5092470;28;20182;-85
2022/07/06 08:35:36;;;;;;;6.30;5.70;;;;;;;;;;5084874;28;20024;-87
2022/07/06 08:38:05;;;;;;;6.93;5.82;;;;;;;;;;5093855;28;20035;-85
2022/07/06 08:40:34;;;;;;;6.57;5.90;;;;;;;;;;5096676;28;20020;-85
2022/07/06 08:43:00;;;;;;;6.53;5.93;;;;;;;;;;5094111;28;20108;-85
2022/07/06 08:45:27;;;;;;;6.50;5.68;;;;;;;;;;5092016;28;20081;-85
2022/07/06 08:47:54;;;;;;;6.60;5.90;;;;;;;;;;5093261;28;20059;-86
2022/07/06 08:50:20;;;;;;;6.93;6.28;;;;;;;;;;5086679;28;20016;-87
2022/07/06 08:52:48;;;;;;;6.32;5.70;;;;;;;;;;5093118;28;20027;-84
2022/07/06 08:55:15;;;;;;;6.85;6.15;;;;;;;;;;5096178;28;20031;-84
2022/07/06 08:57:41;;;;;;;7.30;6.60;;;;;;;;;;5092109;28;20404;-88
2022/07/06 09:00:08;;;;;;;8.50;6.47;;;;;;;;;;5087197;28;20031;-83
2022/07/06 09:02:34;;;;;;;7.72;6.47;;;;;;;;;;5092831;28;20030;-85
2022/07/06 09:05:02;;;;;;;7.80;6.32;;;;;;;;;;5092994;28;20024;-85
2022/07/06 09:07:28;;;;;;;7.55;6.85;;;;;;;;;;5094989;28;20032;-85
2022/07/06 09:09:54;;;;;;;6.65;6.05;;;;;;;;;;5092186;28;20051;-85
2022/07/06 09:12:20;;;;;;;8.40;6.82;;;;;;;;;;5094707;28;20045;-85
2022/07/06 09:14:46;;;;;;;7.13;5.97;;;;;;;;;;5089140;28;20024;-87
2022/07/06 09:17:12;;;;;;;6.53;5.82;;;;;;;;;;5094729;28;20031;-87
2022/07/06 09:19:37;;;;;;;6.43;5.82;;;;;;;;;;5092763;28;20611;-83
2022/07/06 09:22:05;;;;;;;6.13;5.25;;;;;;;;;;5093898;28;20091;-86
2022/07/06 09:24:31;;;;;;;6.53;5.22;;;;;;;;;;5078737;28;20028;-87
2022/07/06 09:26:58;;;;;;;6.03;5.53;;;;;;;;;;5093965;28;20050;-84
2022/07/06 09:29:31;;;;;;;7.15;5.80;;;;;;;;;;5094900;28;20035;-84
2022/07/06 09:31:57;;;;;;;6.68;5.88;;;;;;;;;;5087609;28;20048;-87
2022/07/06 09:34:23;;;;;;;7.90;6.38;;;;;;;;;;5095967;28;20027;-87
2022/07/06 09:36:50;;;;;;;7.03;5.68;;;;;;;;;;5090328;28;20081;-84
2022/07/06 09:39:27;;;;;;;7.50;5.85;;;;;;;;;;5095217;28;20028;-87
2022/07/06 09:41:55;;;;;;;6.10;5.50;;;;;;;;;;5094239;28;20024;-88
2022/07/06 09:44:26;;;;;;;7.30;6.05;;;;;;;;;;5095301;28;20016;-86
2022/07/06 09:46:52;;;;;;;6.80;6.20;;;;;;;;;;5092873;28;20081;-85
2022/07/06 09:49:19;;;;;;;6.70;6.00;;;;;;;;;;5097018;28;20387;-85
2022/07/06 09:51:49;;;;;;;5.82;5.30;;;;;;;;;;5096369;28;20401;-85
2022/07/06 09:54:14;;;;;;;;;;;;;;;;;;5097172;28;20040;-84
2022/07/06 09:56:41;;;;;;;6.35;5.75;;;;;;;;;;5095914;28;19987;-84
2022/07/06 09:59:14;;;;;;;6.47;5.88;;;;;;;;;;5096674;28;20032;-86
2022/07/06 10:01:41;;;;;;;7.85;7.05;;;;;;;;;;5091845;28;20030;-88
2022/07/06 10:04:07;;;;;;;8.38;7.55;;;;;;;;;;5093020;28;20027;-86
2022/07/06 10:06:33;;;;;;;7.50;6.80;;;;;;;;;;5092009;28;20472;-89
2022/07/06 10:08:59;;;;;;;8.45;7.65;;;;;;;;;;5092085;28;20047;-85
2022/07/06 10:11:25;;;;;;;8.32;7.47;;;;;;;;;;5095226;28;20020;-85
2022/07/06 10:13:55;;;;;;;10.15;7.40;;;;;;;;;;5090723;28;20055;-85
2022/07/06 10:16:22;;;;;;;9.05;7.63;;;;;;;;;;5092418;28;20031;-84
2022/07/06 10:18:49;;;;;;;8.57;7.78;;;;;;;;;;5088990;28;20036;-83
2022/07/06 10:21:16;;;;;;;7.72;6.88;;;;;;;;;;5084841;28;20407;-86
2022/07/06 10:23:42;;;;;;;8.43;7.47;;;;;;;;;;5087410;28;20017;-85
2022/07/06 10:26:09;;;;;;;8.00;7.20;;;;;;;;;;5086978;28;20103;-83
2022/07/06 10:28:35;;;;;;;7.82;7.03;;;;;;;;;;5089663;28;20028;-88
2022/07/06 10:31:01;;;;;;;7.45;6.75;;;;;;;;;;5088021;28;20024;-86
2022/07/06 10:33:26;;;;;;;8.48;7.10;;;;;;;;;;5120939;27;20047;-86
2022/07/06 10:35:52;;;;;;;7.65;6.85;;;;;;;;;;5089734;28;20069;-86
2022/07/06 10:38:19;;;;;;;7.82;7.18;;;;;;;;;;5090940;28;20028;-89
2022/07/06 10:41:02;;;;;;;7.32;6.63;;;;;;;;;;5093028;28;20024;-85
2022/07/06 10:43:35;;;;;;;8.40;7.70;;;;;;;;;;5091127;28;20050;-86
2022/07/06 10:46:19;;;;;;;9.32;8.43;;;;;;;;;;5092384;28;20380;-87
2022/07/06 10:48:45;;;;;;;8.68;7.60;;;;;;;;;;5092007;28;20024;-86
2022/07/06 10:51:12;;;;;;;7.35;6.65;;;;;;;;;;5086630;28;20020;-85
2022/07/06 10:53:40;;;;;;;7.43;6.72;;;;;;;;;;5090953;28;20064;-84
2022/07/06 10:56:08;;;;;;;8.35;7.55;;;;;;;;;;5090028;28;20538;-86
2022/07/06 10:58:53;;;;;;;8.32;7.50;;;;;;;;;;5090278;28;20371;-87
2022/07/06 11:01:20;;;;;;;8.40;6.93;;;;;;;;;;5089466;28;20040;-88
2022/07/06 11:04:03;;;;;;;7.50;6.80;;;;;;;;;;5090514;28;20379;-88
2022/07/06 11:06:32;;;;;;;9.15;7.65;;;;;;;;;;5091121;28;20024;-86
2022/07/06 11:09:03;;;;;;;7.82;7.05;;;;;;;;;;5089220;28;20444;-89
2022/07/06 11:11:31;;;;;;;7.05;6.35;;;;;;;;;;5090957;28;20024;-84
2022/07/06 11:14:14;;;;;;;7.63;6.90;;;;;;;;;;5090447;28;20088;-84
2022/07/06 11:16:48;;;;;;;7.97;7.28;;;;;;;;;;5088394;28;20478;-84
2022/07/06 11:19:23;;;;;;;8.27;7.28;;;;;;;;;;5092097;28;20028;-84
2022/07/06 11:21:56;;;;;;;8.15;7.35;;;;;;;;;;5089298;28;20047;-87
2022/07/06 11:24:29;;;;;;;8.13;7.18;;;;;;;;;;5087728;28;20019;-86
2022/07/06 11:26:56;;;;;;;7.85;7.05;;;;;;;;;;5089513;28;20039;-86
2022/07/06 11:29:23;;;;;;;7.28;6.57;;;;;;;;;;5090368;28;20023;-86
2022/07/06 11:31:52;;;;;;;7.32;6.63;;;;;;;;;;5092157;28;20039;-83
2022/07/06 11:34:24;;;;;;;7.47;6.80;;;;;;;;;;5090894;28;20070;-86
2022/07/06 11:36:55;;;;;;;7.55;6.88;;;;;;;;;;5091025;28;20106;-87
2022/07/06 11:39:20;;;;;;;7.85;7.05;;;;;;;;;;5092116;28;20020;-87
2022/07/06 11:41:46;;;;;;;9.10;8.27;;;;;;;;;;5090798;28;20524;-87
2022/07/06 11:44:11;;;;;;;9.07;8.27;;;;;;;;;;5089649;28;20020;-85
2022/07/06 11:46:37;;;;;;;8.23;7.32;;;;;;;;;;5091430;28;20024;-90
2022/07/06 11:49:04;;;;;;;7.50;6.78;;;;;;;;;;5088688;28;20038;-86
2022/07/06 11:51:34;;;;;;;8.32;6.95;;;;;;;;;;5088852;28;20032;-84
2022/07/06 11:54:02;;;;;;;6.40;5.80;;;;;;;;;;5089105;28;20047;-85
2022/07/06 11:56:30;;;;;;;7.68;7.03;;;;;;;;;;5091448;28;20036;-85
2022/07/06 11:58:58;;;;;;;7.00;6.40;;;;;;;;;;5088833;28;20479;-87
2022/07/06 12:01:26;;;;;;;7.10;6.50;;;;;;;;;;5090583;28;20472;-87
2022/07/06 12:03:52;;;;;;;6.78;6.20;;;;;;;;;;5086785;28;20041;-86
2022/07/06 12:06:22;;;;;;;6.68;6.07;;;;;;;;;;5091278;28;20456;-85
2022/07/06 12:08:49;;;;;;;7.55;6.22;;;;;;;;;;5083354;28;20073;-86
2022/07/06 12:11:21;;;;;;;7.45;6.72;;;;;;;;;;5091808;28;20460;-85
2022/07/06 12:13:48;;;;;;;6.78;6.15;;;;;;;;;;5086943;28;20039;-89
2022/07/06 12:16:17;;;;;;;7.20;6.60;;;;;;;;;;5087779;28;20103;-86
2022/07/06 12:18:47;;;;;;;7.22;6.53;;;;;;;;;;5086152;28;20567;-82
2022/07/06 12:21:18;;;;;;;6.60;6.00;;;;;;;;;;5086150;28;20036;-84
2022/07/06 12:23:47;;;;;;;7.43;6.80;;;;;;;;;;5085895;28;20052;-84
2022/07/06 12:26:16;;;;;;;7.10;6.50;;;;;;;;;;5088931;28;20039;-84
2022/07/06 12:28:44;;;;;;;7.85;7.00;;;;;;;;;;5085143;28;20039;-85
2022/07/06 12:31:10;;;;;;;6.32;5.82;;;;;;;;;;5086421;28;20036;-86
2022/07/06 12:33:36;;;;;;;7.20;6.60;;;;;;;;;;5085624;28;20028;-85
2022/07/06 12:36:15;;;;;;;6.55;5.95;;;;;;;;;;5088705;28;20023;-87
2022/07/06 12:38:45;;;;;;;6.50;5.90;;;;;;;;;;5090937;28;20019;-86
2022/07/06 12:41:22;;;;;;;6.05;5.45;;;;;;;;;;5088055;28;20032;-85
2022/07/06 12:43:47;;;;;;;5.80;5.20;;;;;;;;;;5091577;28;20047;-85
2022/07/06 12:46:30;;;;;;;5.60;5.10;;;;;;;;;;5086888;28;20040;-85
2022/07/06 12:48:57;;;;;;;6.60;5.63;;;;;;;;;;5087084;28;20035;-84
2022/07/06 12:51:22;;;;;;;5.32;4.82;;;;;;;;;;5090085;28;20028;-83
2022/07/06 12:53:48;;;;;;;5.43;4.93;;;;;;;;;;5087845;28;20094;-85
2022/07/06 12:56:15;;;;;;;5.00;4.57;;;;;;;;;;5090395;28;20061;-86
2022/07/06 12:58:58;;;;;;;4.70;4.28;;;;;;;;;;5089490;28;20032;-86
2022/07/06 13:01:24;;;;;;;4.35;3.97;;;;;;;;;;5088875;28;20520;-85
2022/07/06 13:03:55;;;;;;;4.60;4.20;;;;;;;;;;5088646;28;20146;-89
2022/07/06 13:06:37;;;;;;;5.28;4.45;;;;;;;;;;5092223;28;20024;-85
2022/07/06 13:09:02;;;;;;;4.35;3.92;;;;;;;;;;5093988;28;20031;-87
2022/07/06 13:11:28;;;;;;;4.72;4.20;;;;;;;;;;5095394;28;20383;-88
2022/07/06 13:13:53;;;;;;;4.78;4.38;;;;;;;;;;5090947;28;20034;-88
2022/07/06 13:16:19;;;;;;;4.72;4.32;;;;;;;;;;5087989;28;20114;-86
2022/07/06 13:18:45;;;;;;;4.85;4.45;;;;;;;;;;5088141;28;20024;-85
2022/07/06 13:21:11;;;;;;;4.50;4.13;;;;;;;;;;5089168;28;20032;-87
2022/07/06 13:23:36;;;;;;;4.00;3.70;;;;;;;;;;5089564;28;20078;-87
2022/07/06 13:26:02;;;;;;;3.63;3.33;;;;;;;;;;5087944;28;20480;-87
2022/07/06 13:28:27;;;;;;;4.22;3.22;;;;;;;;;;5088478;28;20026;-84
2022/07/06 13:30:53;;;;;;;6.20;3.78;;;;;;;;;;5090939;28;20107;-86
2022/07/06 13:33:23;;;;;;;4.22;3.50;;;;;;;;;;5091123;28;20032;-83
2022/07/06 13:35:49;;;;;;;3.92;3.53;;;;;;;;;;5090779;28;20073;-84
2022/07/06 13:38:14;;;;;;;4.15;3.75;;;;;;;;;;5094379;28;20020;-89
2022/07/06 13:40:41;;;;;;;3.47;3.17;;;;;;;;;;5093882;28;20024;-87
2022/07/06 13:43:06;;;;;;;3.60;3.30;;;;;;;;;;5093310;28;20035;-86
2022/07/06 13:45:32;;;;;;;4.32;3.33;;;;;;;;;;5088486;28;20492;-86
2022/07/06 13:47:58;;;;;;;3.53;3.22;;;;;;;;;;5093238;28;20077;-85
2022/07/06 13:50:25;;;;;;;3.53;2.85;;;;;;;;;;5091173;28;20031;-84
2022/07/06 13:52:50;;;;;;;6.20;2.60;;;;;;;;;;5094147;28;20032;-83
2022/07/06 13:55:15;;;;;;;3.85;2.40;;;;;;;;;;5092947;28;20031;-88
2022/07/06 13:57:42;;;;;;;3.72;2.28;;;;;;;;;;5093805;28;20023;-87
2022/07/06 14:00:08;;;;;;;2.10;1.90;;;;;;;;;;5093700;28;20025;-88
2022/07/06 14:02:34;;;;;;;2.55;1.98;;;;;;;;;;5095442;28;20483;-85
2022/07/06 14:05:01;;;;;;;4.20;1.95;;;;;;;;;;5092792;28;20103;-87
2022/07/06 14:07:27;;;;;;;1.50;1.40;;;;;;;;;;5090407;28;20023;-86
2022/07/06 14:09:52;;;;;;;1.40;1.30;;;;;;;;;;5093588;28;20034;-84
2022/07/06 14:12:19;;;;;;;1.40;1.30;;;;;;;;;;5095225;28;20012;-87
2022/07/06 14:14:44;;;;;;;2.75;1.50;;;;;;;;;;5094455;28;20465;-87
2022/07/06 14:17:09;;;;;;;1.60;1.50;;;;;;;;;;5094899;28;20039;-85
2022/07/06 14:19:35;;;;;;;2.40;1.33;;;;;;;;;;5091978;28;20035;-85
2022/07/06 14:22:00;;;;;;;2.17;1.27;;;;;;;;;;5092018;28;20091;-84
2022/07/06 14:24:26;;;;;;;1.63;1.50;;;;;;;;;;5094350;28;20395;-83
2022/07/06 14:26:51;;;;;;;1.35;1.25;;;;;;;;;;5089402;28;20487;-83
2022/07/06 14:29:17;;;;;;;2.92;1.52;;;;;;;;;;5092622;28;20063;-86
2022/07/06 14:31:42;;;;;;;1.75;1.35;;;;;;;;;;5093946;28;20779;-84
2022/07/06 14:34:09;;;;;;;1.23;1.13;;;;;;;;;;5094028;28;20039;-85
2022/07/06 14:36:37;;;;;;;1.30;1.20;;;;;;;;;;5090473;28;20487;-87
2022/07/06 14:39:04;;;;;;;2.75;1.55;;;;;;;;;;5094352;28;20089;-86
2022/07/06 14:41:29;;;;;;;1.70;1.60;;;;;;;;;;5094614;28;20028;-85
2022/07/06 14:43:55;;;;;;;1.70;1.50;;;;;;;;;;5092271;28;20036;-83